Providence, Rhode Island
Traffic Map
Current Weather Conditions
Providence, Rhode Island
Clear
Clear
73°
Feels Like: 73°
Wind Chill: 73° Ceiling: Unl
Heat Index: 73° Visibility: 10mi
Dew Point: 64° Wind: 0mph
Humidity: 73% Direction: ° ()
Pressure: 29.96in Gusts: 0mph
Raw Report DataKPVD 250551Z AUTO 00000KT 10SM CLR 23/18 A2996 RMK AO2 SLP145 T02280178 10272 20228 58005 $
Traffic Incident Summary
Active as of:
Severity:
Category:
InformationThere was an issue retrieving the traffic information for this location. Please try a different location or try again shortly.
Advertisements
Track Severe Weather on mobile